sensor_id;sensor_type;location;lat;lon;timestamp;pressure;altitude;pressure_sealevel;temperature;humidity
75513;BME280;64090;49.770;18.760;2023-11-21T00:02:01;96894.52;;;7.07;95.69
75513;BME280;64090;49.770;18.760;2023-11-21T00:05:04;96892.88;;;7.09;95.68
75513;BME280;64090;49.770;18.760;2023-11-21T00:08:08;96891.33;;;7.09;94.62
75513;BME280;64090;49.770;18.760;2023-11-21T00:11:11;96892.63;;;7.11;94.80
75513;BME280;64090;49.770;18.760;2023-11-21T00:14:13;96898.97;;;7.14;94.66
75513;BME280;64090;49.770;18.760;2023-11-21T00:17:17;96903.20;;;7.15;94.14
75513;BME280;64090;49.770;18.760;2023-11-21T00:20:21;96911.37;;;7.17;94.13
75513;BME280;64090;49.770;18.760;2023-11-21T00:23:24;96911.98;;;7.17;94.12
75513;BME280;64090;49.770;18.760;2023-11-21T00:26:27;96920.00;;;7.16;94.17
75513;BME280;64090;49.770;18.760;2023-11-21T00:29:30;96922.23;;;7.16;94.08
75513;BME280;64090;49.770;18.760;2023-11-21T00:32:33;96922.89;;;7.15;93.75
75513;BME280;64090;49.770;18.760;2023-11-21T00:35:36;96926.06;;;7.17;93.86
75513;BME280;64090;49.770;18.760;2023-11-21T00:38:39;96932.17;;;7.17;93.58
75513;BME280;64090;49.770;18.760;2023-11-21T00:41:42;96929.23;;;7.15;93.16
75513;BME280;64090;49.770;18.760;2023-11-21T00:44:47;96928.48;;;7.14;93.47
75513;BME280;64090;49.770;18.760;2023-11-21T00:47:50;96928.73;;;7.12;93.66
75513;BME280;64090;49.770;18.760;2023-11-21T00:50:53;96928.66;;;7.08;93.76
75513;BME280;64090;49.770;18.760;2023-11-21T00:53:56;96926.41;;;7.05;94.07
75513;BME280;64090;49.770;18.760;2023-11-21T00:56:59;96928.85;;;7.02;94.15
75513;BME280;64090;49.770;18.760;2023-11-21T01:00:02;96927.27;;;6.98;94.11
75513;BME280;64090;49.770;18.760;2023-11-21T01:03:10;96925.85;;;6.97;94.19
75513;BME280;64090;49.770;18.760;2023-11-21T01:06:13;96925.68;;;6.95;94.10
75513;BME280;64090;49.770;18.760;2023-11-21T01:09:18;96922.67;;;6.97;94.14
75513;BME280;64090;49.770;18.760;2023-11-21T01:12:21;96921.95;;;6.96;94.23
75513;BME280;64090;49.770;18.760;2023-11-21T01:15:24;96923.45;;;6.95;94.06
75513;BME280;64090;49.770;18.760;2023-11-21T01:18:28;96924.87;;;6.93;94.38
75513;BME280;64090;49.770;18.760;2023-11-21T01:21:31;96922.51;;;6.91;94.33
75513;BME280;64090;49.770;18.760;2023-11-21T01:24:34;96923.44;;;6.88;94.74
75513;BME280;64090;49.770;18.760;2023-11-21T01:27:37;96921.73;;;6.87;94.48
75513;BME280;64090;49.770;18.760;2023-11-21T01:30:40;96918.16;;;6.86;94.51
75513;BME280;64090;49.770;18.760;2023-11-21T01:33:43;96920.27;;;6.86;94.68
75513;BME280;64090;49.770;18.760;2023-11-21T01:36:46;96922.02;;;6.85;94.72
75513;BME280;64090;49.770;18.760;2023-11-21T01:39:49;96922.39;;;6.83;94.91
75513;BME280;64090;49.770;18.760;2023-11-21T01:42:53;96930.75;;;6.84;94.61
75513;BME280;64090;49.770;18.760;2023-11-21T01:45:56;96930.79;;;6.85;94.58
75513;BME280;64090;49.770;18.760;2023-11-21T01:48:59;96934.25;;;6.85;94.36
75513;BME280;64090;49.770;18.760;2023-11-21T01:52:03;96938.36;;;6.86;94.24
75513;BME280;64090;49.770;18.760;2023-11-21T01:55:08;96936.89;;;6.87;94.08
75513;BME280;64090;49.770;18.760;2023-11-21T01:58:20;96937.94;;;6.87;94.18
75513;BME280;64090;49.770;18.760;2023-11-21T02:01:24;96932.84;;;6.87;94.01
75513;BME280;64090;49.770;18.760;2023-11-21T02:04:28;96932.66;;;6.85;94.40
75513;BME280;64090;49.770;18.760;2023-11-21T02:07:31;96928.27;;;6.84;94.21
75513;BME280;64090;49.770;18.760;2023-11-21T02:10:35;96926.69;;;6.81;94.44
75513;BME280;64090;49.770;18.760;2023-11-21T02:13:39;96930.91;;;6.80;94.32
75513;BME280;64090;49.770;18.760;2023-11-21T02:16:46;96933.19;;;6.79;94.34
75513;BME280;64090;49.770;18.760;2023-11-21T02:19:52;96937.37;;;6.78;94.43
75513;BME280;64090;49.770;18.760;2023-11-21T02:22:56;96937.23;;;6.77;94.47
75513;BME280;64090;49.770;18.760;2023-11-21T02:26:03;96939.08;;;6.77;94.41
75513;BME280;64090;49.770;18.760;2023-11-21T02:29:07;96939.08;;;6.77;94.34
75513;BME280;64090;49.770;18.760;2023-11-21T02:32:13;96939.77;;;6.76;94.25
75513;BME280;64090;49.770;18.760;2023-11-21T02:35:17;96940.91;;;6.75;94.54
75513;BME280;64090;49.770;18.760;2023-11-21T02:38:21;96940.53;;;6.73;94.68
75513;BME280;64090;49.770;18.760;2023-11-21T02:41:23;96939.42;;;6.73;94.54
75513;BME280;64090;49.770;18.760;2023-11-21T02:44:26;96940.33;;;6.71;94.70
75513;BME280;64090;49.770;18.760;2023-11-21T02:47:29;96944.55;;;6.70;94.59
75513;BME280;64090;49.770;18.760;2023-11-21T02:50:32;96948.69;;;6.69;94.66
75513;BME280;64090;49.770;18.760;2023-11-21T02:53:35;96949.90;;;6.68;94.59
75513;BME280;64090;49.770;18.760;2023-11-21T02:56:38;96955.11;;;6.68;94.58
75513;BME280;64090;49.770;18.760;2023-11-21T02:59:42;96953.48;;;6.67;94.57
75513;BME280;64090;49.770;18.760;2023-11-21T03:02:45;96950.96;;;6.66;94.81
75513;BME280;64090;49.770;18.760;2023-11-21T03:05:50;96951.73;;;6.66;94.54
75513;BME280;64090;49.770;18.760;2023-11-21T03:08:53;96952.79;;;6.65;94.41
75513;BME280;64090;49.770;18.760;2023-11-21T03:11:56;96957.90;;;6.65;94.52
75513;BME280;64090;49.770;18.760;2023-11-21T03:14:59;96953.59;;;6.64;94.44
75513;BME280;64090;49.770;18.760;2023-11-21T03:18:02;96948.87;;;6.62;94.53
75513;BME280;64090;49.770;18.760;2023-11-21T03:21:06;96947.25;;;6.61;94.37
75513;BME280;64090;49.770;18.760;2023-11-21T03:24:12;96951.77;;;6.61;94.50
75513;BME280;64090;49.770;18.760;2023-11-21T03:27:15;96953.09;;;6.60;94.47
75513;BME280;64090;49.770;18.760;2023-11-21T03:30:18;96950.66;;;6.61;94.28
75513;BME280;64090;49.770;18.760;2023-11-21T03:33:21;96952.25;;;6.62;94.09
75513;BME280;64090;49.770;18.760;2023-11-21T03:36:24;96953.14;;;6.63;94.34
75513;BME280;64090;49.770;18.760;2023-11-21T03:39:27;96951.31;;;6.62;94.39
75513;BME280;64090;49.770;18.760;2023-11-21T03:42:32;96949.03;;;6.62;94.30
75513;BME280;64090;49.770;18.760;2023-11-21T03:45:35;96950.65;;;6.61;94.29
75513;BME280;64090;49.770;18.760;2023-11-21T03:48:38;96950.45;;;6.60;94.27
75513;BME280;64090;49.770;18.760;2023-11-21T03:51:41;96954.35;;;6.58;94.22
75513;BME280;64090;49.770;18.760;2023-11-21T03:54:44;96951.66;;;6.57;94.44
75513;BME280;64090;49.770;18.760;2023-11-21T03:57:47;96954.46;;;6.56;94.46
75513;BME280;64090;49.770;18.760;2023-11-21T04:00:49;96955.04;;;6.56;94.52
75513;BME280;64090;49.770;18.760;2023-11-21T04:03:52;96951.37;;;6.54;94.34
75513;BME280;64090;49.770;18.760;2023-11-21T04:06:55;96953.48;;;6.54;94.48
75513;BME280;64090;49.770;18.760;2023-11-21T04:09:59;96953.41;;;6.54;94.45
75513;BME280;64090;49.770;18.760;2023-11-21T04:13:02;96949.66;;;6.54;94.31
75513;BME280;64090;49.770;18.760;2023-11-21T04:16:07;96952.14;;;6.54;94.29
75513;BME280;64090;49.770;18.760;2023-11-21T04:19:10;96950.16;;;6.54;94.28
75513;BME280;64090;49.770;18.760;2023-11-21T04:22:13;96952.71;;;6.53;94.44
75513;BME280;64090;49.770;18.760;2023-11-21T04:25:16;96950.33;;;6.54;94.37
75513;BME280;64090;49.770;18.760;2023-11-21T04:28:19;96953.73;;;6.55;94.32
75513;BME280;64090;49.770;18.760;2023-11-21T04:31:22;96953.89;;;6.55;94.27
75513;BME280;64090;49.770;18.760;2023-11-21T04:34:26;96950.73;;;6.56;94.20
75513;BME280;64090;49.770;18.760;2023-11-21T04:37:29;96954.43;;;6.56;94.29
75513;BME280;64090;49.770;18.760;2023-11-21T04:40:32;96958.66;;;6.56;94.07
75513;BME280;64090;49.770;18.760;2023-11-21T04:43:35;96956.82;;;6.57;93.98
75513;BME280;64090;49.770;18.760;2023-11-21T04:46:37;96959.95;;;6.57;93.98
75513;BME280;64090;49.770;18.760;2023-11-21T04:49:42;96960.04;;;6.57;94.06
75513;BME280;64090;49.770;18.760;2023-11-21T04:52:45;96963.92;;;6.56;93.82
75513;BME280;64090;49.770;18.760;2023-11-21T04:55:48;96970.31;;;6.57;93.94
75513;BME280;64090;49.770;18.760;2023-11-21T04:58:53;96973.80;;;6.58;93.76
75513;BME280;64090;49.770;18.760;2023-11-21T05:01:56;96982.13;;;6.57;93.82
75513;BME280;64090;49.770;18.760;2023-11-21T05:04:59;96983.23;;;6.55;93.63
75513;BME280;64090;49.770;18.760;2023-11-21T05:08:03;96986.84;;;6.56;93.71
75513;BME280;64090;49.770;18.760;2023-11-21T05:11:07;96988.66;;;6.54;93.80
75513;BME280;64090;49.770;18.760;2023-11-21T05:14:09;96994.23;;;6.54;93.85
75513;BME280;64090;49.770;18.760;2023-11-21T05:17:12;96993.28;;;6.53;93.90
75513;BME280;64090;49.770;18.760;2023-11-21T05:20:16;97003.40;;;6.52;94.09
75513;BME280;64090;49.770;18.760;2023-11-21T05:23:26;97002.34;;;6.52;94.04
75513;BME280;64090;49.770;18.760;2023-11-21T05:26:29;97001.08;;;6.50;94.08
75513;BME280;64090;49.770;18.760;2023-11-21T05:29:32;96998.23;;;6.49;94.49
75513;BME280;64090;49.770;18.760;2023-11-21T05:32:34;96998.83;;;6.46;94.88
75513;BME280;64090;49.770;18.760;2023-11-21T05:35:38;96995.33;;;6.43;94.84
75513;BME280;64090;49.770;18.760;2023-11-21T05:38:40;96994.30;;;6.40;94.91
75513;BME280;64090;49.770;18.760;2023-11-21T05:41:44;96993.35;;;6.37;94.98
75513;BME280;64090;49.770;18.760;2023-11-21T05:44:49;96995.33;;;6.32;94.91
75513;BME280;64090;49.770;18.760;2023-11-21T05:47:52;96996.81;;;6.28;95.46
75513;BME280;64090;49.770;18.760;2023-11-21T05:50:55;97002.75;;;6.23;95.63
75513;BME280;64090;49.770;18.760;2023-11-21T05:53:58;97005.57;;;6.20;95.57
75513;BME280;64090;49.770;18.760;2023-11-21T05:57:01;97008.79;;;6.19;95.44
75513;BME280;64090;49.770;18.760;2023-11-21T06:00:11;97011.18;;;6.18;95.28
75513;BME280;64090;49.770;18.760;2023-11-21T06:03:28;97012.34;;;6.18;95.24
75513;BME280;64090;49.770;18.760;2023-11-21T06:06:32;97015.09;;;6.17;95.25
75513;BME280;64090;49.770;18.760;2023-11-21T06:09:35;97013.05;;;6.15;95.13
75513;BME280;64090;49.770;18.760;2023-11-21T06:12:38;97018.26;;;6.14;95.14
75513;BME280;64090;49.770;18.760;2023-11-21T06:15:42;97021.90;;;6.13;95.04
75513;BME280;64090;49.770;18.760;2023-11-21T06:18:46;97024.34;;;6.13;95.10
75513;BME280;64090;49.770;18.760;2023-11-21T06:21:49;97030.96;;;6.14;94.91
75513;BME280;64090;49.770;18.760;2023-11-21T06:24:51;97038.27;;;6.16;94.92
75513;BME280;64090;49.770;18.760;2023-11-21T06:27:54;97043.59;;;6.17;94.83
75513;BME280;64090;49.770;18.760;2023-11-21T06:30:57;97044.75;;;6.18;94.90
75513;BME280;64090;49.770;18.760;2023-11-21T06:34:00;97045.30;;;6.21;94.74
75513;BME280;64090;49.770;18.760;2023-11-21T06:37:03;97048.39;;;6.23;94.74
75513;BME280;64090;49.770;18.760;2023-11-21T06:40:07;97058.31;;;6.27;94.64
75513;BME280;64090;49.770;18.760;2023-11-21T06:43:10;97065.76;;;6.28;94.70
75513;BME280;64090;49.770;18.760;2023-11-21T06:46:13;97066.98;;;6.29;94.71
75513;BME280;64090;49.770;18.760;2023-11-21T06:49:19;97070.93;;;6.30;94.79
75513;BME280;64090;49.770;18.760;2023-11-21T06:52:22;97072.70;;;6.30;94.55
75513;BME280;64090;49.770;18.760;2023-11-21T06:55:25;97071.01;;;6.31;94.63
75513;BME280;64090;49.770;18.760;2023-11-21T06:58:28;97070.48;;;6.31;94.70
75513;BME280;64090;49.770;18.760;2023-11-21T07:01:31;97074.75;;;6.31;94.61
75513;BME280;64090;49.770;18.760;2023-11-21T07:04:41;97072.02;;;6.31;94.93
75513;BME280;64090;49.770;18.760;2023-11-21T07:07:44;97075.92;;;6.32;94.50
75513;BME280;64090;49.770;18.760;2023-11-21T07:10:48;97073.34;;;6.34;94.59
75513;BME280;64090;49.770;18.760;2023-11-21T07:13:51;97072.69;;;6.34;94.83
75513;BME280;64090;49.770;18.760;2023-11-21T07:16:54;97071.52;;;6.37;94.68
75513;BME280;64090;49.770;18.760;2023-11-21T07:19:57;97070.36;;;6.39;94.85
75513;BME280;64090;49.770;18.760;2023-11-21T07:23:01;97066.36;;;6.44;94.73
75513;BME280;64090;49.770;18.760;2023-11-21T07:26:04;97068.62;;;6.49;94.87
75513;BME280;64090;49.770;18.760;2023-11-21T07:29:11;97071.79;;;6.57;94.78
75513;BME280;64090;49.770;18.760;2023-11-21T07:32:16;97072.36;;;6.66;94.64
75513;BME280;64090;49.770;18.760;2023-11-21T07:35:19;97073.89;;;6.77;94.77
75513;BME280;64090;49.770;18.760;2023-11-21T07:38:22;97073.59;;;6.89;94.46
75513;BME280;64090;49.770;18.760;2023-11-21T07:41:25;97069.27;;;7.01;94.36
75513;BME280;64090;49.770;18.760;2023-11-21T07:44:33;97066.45;;;7.09;94.21
75513;BME280;64090;49.770;18.760;2023-11-21T07:47:36;97068.89;;;7.12;93.81
75513;BME280;64090;49.770;18.760;2023-11-21T07:50:39;97068.70;;;7.12;93.67
75513;BME280;64090;49.770;18.760;2023-11-21T07:53:42;97076.14;;;7.14;93.71
75513;BME280;64090;49.770;18.760;2023-11-21T07:56:45;97078.54;;;7.19;93.77
75513;BME280;64090;49.770;18.760;2023-11-21T07:59:48;97079.05;;;7.29;93.76
75513;BME280;64090;49.770;18.760;2023-11-21T08:02:50;97081.03;;;7.42;93.53
75513;BME280;64090;49.770;18.760;2023-11-21T08:05:54;97081.96;;;7.53;92.78
75513;BME280;64090;49.770;18.760;2023-11-21T08:08:57;97082.55;;;7.66;92.73
75513;BME280;64090;49.770;18.760;2023-11-21T08:12:00;97089.48;;;7.79;92.58
75513;BME280;64090;49.770;18.760;2023-11-21T08:15:05;97093.23;;;7.88;92.78
75513;BME280;64090;49.770;18.760;2023-11-21T08:18:08;97097.50;;;7.94;92.62
75513;BME280;64090;49.770;18.760;2023-11-21T08:21:14;97103.69;;;8.00;92.59
75513;BME280;64090;49.770;18.760;2023-11-21T08:24:17;97108.24;;;8.09;92.58
75513;BME280;64090;49.770;18.760;2023-11-21T08:27:19;97108.55;;;8.20;92.30
75513;BME280;64090;49.770;18.760;2023-11-21T08:30:22;97111.85;;;8.33;91.51
75513;BME280;64090;49.770;18.760;2023-11-21T08:33:26;97111.40;;;8.43;90.83
75513;BME280;64090;49.770;18.760;2023-11-21T08:36:30;97109.58;;;8.58;90.93
75513;BME280;64090;49.770;18.760;2023-11-21T08:39:34;97107.38;;;8.72;90.98
75513;BME280;64090;49.770;18.760;2023-11-21T08:42:37;97110.20;;;8.81;90.61
75513;BME280;64090;49.770;18.760;2023-11-21T08:45:40;97111.84;;;8.87;90.65
75513;BME280;64090;49.770;18.760;2023-11-21T08:48:43;97116.63;;;8.87;90.60
75513;BME280;64090;49.770;18.760;2023-11-21T08:51:46;97117.86;;;8.82;90.18
75513;BME280;64090;49.770;18.760;2023-11-21T08:54:49;97120.21;;;8.76;89.71
75513;BME280;64090;49.770;18.760;2023-11-21T08:57:58;97121.66;;;8.69;90.15
75513;BME280;64090;49.770;18.760;2023-11-21T09:01:04;97127.11;;;8.66;90.04
75513;BME280;64090;49.770;18.760;2023-11-21T09:04:07;97123.30;;;8.72;90.01
75513;BME280;64090;49.770;18.760;2023-11-21T09:07:10;97122.66;;;8.73;90.02
75513;BME280;64090;49.770;18.760;2023-11-21T09:10:13;97123.41;;;8.65;89.41
75513;BME280;64090;49.770;18.760;2023-11-21T09:13:17;97124.27;;;8.62;89.98
75513;BME280;64090;49.770;18.760;2023-11-21T09:16:20;97129.73;;;8.66;90.31
75513;BME280;64090;49.770;18.760;2023-11-21T09:19:23;97124.56;;;8.77;89.97
75513;BME280;64090;49.770;18.760;2023-11-21T09:22:26;97129.66;;;8.89;89.99
75513;BME280;64090;49.770;18.760;2023-11-21T09:25:29;97124.91;;;8.94;88.85
75513;BME280;64090;49.770;18.760;2023-11-21T09:28:32;97124.32;;;9.01;89.20
75513;BME280;64090;49.770;18.760;2023-11-21T09:31:35;97124.36;;;9.09;89.71
75513;BME280;64090;49.770;18.760;2023-11-21T09:34:38;97123.64;;;9.17;88.91
75513;BME280;64090;49.770;18.760;2023-11-21T09:37:41;97126.59;;;9.22;88.99
75513;BME280;64090;49.770;18.760;2023-11-21T09:40:47;97126.98;;;9.27;87.66
75513;BME280;64090;49.770;18.760;2023-11-21T09:43:54;97125.17;;;9.36;88.11
75513;BME280;64090;49.770;18.760;2023-11-21T09:46:59;97123.39;;;9.38;87.67
75513;BME280;64090;49.770;18.760;2023-11-21T09:50:02;97121.86;;;9.43;87.89
75513;BME280;64090;49.770;18.760;2023-11-21T09:53:13;97125.02;;;9.48;88.09
75513;BME280;64090;49.770;18.760;2023-11-21T09:56:18;97127.38;;;9.62;88.03
75513;BME280;64090;49.770;18.760;2023-11-21T09:59:30;97122.58;;;9.67;85.43
75513;BME280;64090;49.770;18.760;2023-11-21T10:02:34;97121.60;;;9.61;85.53
75513;BME280;64090;49.770;18.760;2023-11-21T10:05:40;97120.21;;;9.54;86.89
75513;BME280;64090;49.770;18.760;2023-11-21T10:08:45;97124.13;;;9.55;87.49
75513;BME280;64090;49.770;18.760;2023-11-21T10:11:58;97126.20;;;9.62;87.31
75513;BME280;64090;49.770;18.760;2023-11-21T10:15:04;97126.95;;;9.73;86.76
75513;BME280;64090;49.770;18.760;2023-11-21T10:18:10;97128.66;;;9.85;86.29
75513;BME280;64090;49.770;18.760;2023-11-21T10:21:13;97130.10;;;9.88;83.84
75513;BME280;64090;49.770;18.760;2023-11-21T10:24:16;97127.89;;;9.82;82.75
75513;BME280;64090;49.770;18.760;2023-11-21T10:27:20;97126.80;;;9.86;82.99
75513;BME280;64090;49.770;18.760;2023-11-21T10:30:28;97121.48;;;9.99;83.82
75513;BME280;64090;49.770;18.760;2023-11-21T10:33:31;97122.61;;;10.11;84.41
75513;BME280;64090;49.770;18.760;2023-11-21T10:36:35;97117.34;;;10.21;83.00
75513;BME280;64090;49.770;18.760;2023-11-21T10:39:39;97114.76;;;10.22;81.83
75513;BME280;64090;49.770;18.760;2023-11-21T10:42:42;97113.45;;;10.17;80.54
75513;BME280;64090;49.770;18.760;2023-11-21T10:45:45;97116.12;;;9.99;79.59
75513;BME280;64090;49.770;18.760;2023-11-21T10:48:54;97121.36;;;9.82;77.78
75513;BME280;64090;49.770;18.760;2023-11-21T10:51:59;97123.34;;;9.74;78.62
75513;BME280;64090;49.770;18.760;2023-11-21T10:55:16;97126.06;;;9.65;77.32
75513;BME280;64090;49.770;18.760;2023-11-21T10:58:19;97128.61;;;9.53;76.90
75513;BME280;64090;49.770;18.760;2023-11-21T11:01:22;97124.77;;;9.38;77.54
75513;BME280;64090;49.770;18.760;2023-11-21T11:04:28;97125.34;;;9.26;76.82
75513;BME280;64090;49.770;18.760;2023-11-21T11:07:31;97122.77;;;9.08;76.88
75513;BME280;64090;49.770;18.760;2023-11-21T11:10:36;97121.82;;;9.01;77.02
75513;BME280;64090;49.770;18.760;2023-11-21T11:13:43;97124.21;;;8.95;76.94
75513;BME280;64090;49.770;18.760;2023-11-21T11:16:48;97125.16;;;8.94;77.39
75513;BME280;64090;49.770;18.760;2023-11-21T11:19:52;97123.64;;;8.96;78.15
75513;BME280;64090;49.770;18.760;2023-11-21T11:36:33;97120.88;;;9.04;77.88
75513;BME280;64090;49.770;18.760;2023-11-21T11:39:40;97122.58;;;9.24;77.87
75513;BME280;64090;49.770;18.760;2023-11-21T11:43:01;97120.91;;;9.39;77.52
75513;BME280;64090;49.770;18.760;2023-11-21T11:46:07;97125.85;;;9.44;77.17
75513;BME280;64090;49.770;18.760;2023-11-21T11:49:23;97124.99;;;9.45;77.46
75513;BME280;64090;49.770;18.760;2023-11-21T11:52:46;97129.41;;;9.42;77.13
75513;BME280;64090;49.770;18.760;2023-11-21T11:56:18;97129.33;;;9.28;76.64
75513;BME280;64090;49.770;18.760;2023-11-21T11:59:21;97132.89;;;9.09;76.98
75513;BME280;64090;49.770;18.760;2023-11-21T12:02:24;97134.46;;;8.92;77.72
75513;BME280;64090;49.770;18.760;2023-11-21T12:05:27;97133.08;;;8.90;78.46
75513;BME280;64090;49.770;18.760;2023-11-21T12:08:30;97129.13;;;9.01;78.71
75513;BME280;64090;49.770;18.760;2023-11-21T12:11:36;97126.70;;;9.07;78.30
75513;BME280;64090;49.770;18.760;2023-11-21T12:14:39;97124.94;;;9.07;78.23
75513;BME280;64090;49.770;18.760;2023-11-21T12:17:43;97127.29;;;9.01;78.57
75513;BME280;64090;49.770;18.760;2023-11-21T12:20:47;97124.24;;;8.98;78.69
75513;BME280;64090;49.770;18.760;2023-11-21T12:23:52;97127.20;;;8.93;78.63
75513;BME280;64090;49.770;18.760;2023-11-21T12:26:55;97124.14;;;8.82;78.62
75513;BME280;64090;49.770;18.760;2023-11-21T12:29:58;97126.67;;;8.61;79.44
75513;BME280;64090;49.770;18.760;2023-11-21T12:33:02;97128.26;;;8.53;80.13
75513;BME280;64090;49.770;18.760;2023-11-21T12:36:06;97130.29;;;8.49;80.59
75513;BME280;64090;49.770;18.760;2023-11-21T12:39:13;97129.36;;;8.45;81.13
75513;BME280;64090;49.770;18.760;2023-11-21T12:42:17;97129.56;;;8.40;82.49
75513;BME280;64090;49.770;18.760;2023-11-21T12:45:22;97128.23;;;8.32;83.11
75513;BME280;64090;49.770;18.760;2023-11-21T12:48:28;97130.63;;;8.24;83.61
75513;BME280;64090;49.770;18.760;2023-11-21T12:51:32;97131.73;;;8.18;84.15
75513;BME280;64090;49.770;18.760;2023-11-21T12:54:36;97135.08;;;8.13;83.96
75513;BME280;64090;49.770;18.760;2023-11-21T12:57:41;97140.95;;;8.06;83.88
75513;BME280;64090;49.770;18.760;2023-11-21T13:00:46;97142.86;;;7.98;84.56
75513;BME280;64090;49.770;18.760;2023-11-21T13:03:50;97144.48;;;7.83;86.44
75513;BME280;64090;49.770;18.760;2023-11-21T13:06:54;97149.80;;;7.76;86.21
75513;BME280;64090;49.770;18.760;2023-11-21T13:09:58;97152.98;;;7.77;86.40
75513;BME280;64090;49.770;18.760;2023-11-21T13:13:06;97153.36;;;7.77;86.45
75513;BME280;64090;49.770;18.760;2023-11-21T13:16:12;97157.70;;;7.77;86.99
75513;BME280;64090;49.770;18.760;2023-11-21T13:19:16;97155.67;;;7.76;86.93
75513;BME280;64090;49.770;18.760;2023-11-21T13:22:18;97154.57;;;7.80;87.29
75513;BME280;64090;49.770;18.760;2023-11-21T13:25:23;97155.08;;;7.89;87.00
75513;BME280;64090;49.770;18.760;2023-11-21T13:28:26;97155.55;;;7.91;87.18
75513;BME280;64090;49.770;18.760;2023-11-21T13:31:34;97158.49;;;7.90;86.75
75513;BME280;64090;49.770;18.760;2023-11-21T13:34:40;97154.05;;;7.82;87.06
75513;BME280;64090;49.770;18.760;2023-11-21T13:37:50;97152.20;;;7.76;87.35
75513;BME280;64090;49.770;18.760;2023-11-21T13:40:54;97155.94;;;7.74;87.23
75513;BME280;64090;49.770;18.760;2023-11-21T13:43:58;97154.24;;;7.71;87.40
75513;BME280;64090;49.770;18.760;2023-11-21T13:47:30;97154.23;;;7.70;87.49
75513;BME280;64090;49.770;18.760;2023-11-21T13:50:33;97151.63;;;7.73;87.17
75513;BME280;64090;49.770;18.760;2023-11-21T13:53:38;97152.57;;;7.73;87.37
75513;BME280;64090;49.770;18.760;2023-11-21T13:56:42;97152.89;;;7.74;87.58
75513;BME280;64090;49.770;18.760;2023-11-21T13:59:48;97154.08;;;7.76;87.52
75513;BME280;64090;49.770;18.760;2023-11-21T14:02:51;97158.64;;;7.79;87.40
75513;BME280;64090;49.770;18.760;2023-11-21T14:05:54;97164.39;;;7.79;87.57
75513;BME280;64090;49.770;18.760;2023-11-21T14:08:59;97172.64;;;7.77;87.67
75513;BME280;64090;49.770;18.760;2023-11-21T14:12:03;97170.57;;;7.77;87.63
75513;BME280;64090;49.770;18.760;2023-11-21T14:15:09;97172.71;;;7.76;87.84
75513;BME280;64090;49.770;18.760;2023-11-21T14:18:14;97177.29;;;7.78;87.72
75513;BME280;64090;49.770;18.760;2023-11-21T14:21:19;97181.75;;;7.78;87.77
75513;BME280;64090;49.770;18.760;2023-11-21T14:24:22;97184.85;;;7.74;88.13
75513;BME280;64090;49.770;18.760;2023-11-21T14:27:26;97181.63;;;7.69;88.56
75513;BME280;64090;49.770;18.760;2023-11-21T14:30:30;97186.05;;;7.65;88.90
75513;BME280;64090;49.770;18.760;2023-11-21T14:33:35;97182.66;;;7.60;89.01
75513;BME280;64090;49.770;18.760;2023-11-21T14:36:39;97185.33;;;7.53;89.27
75513;BME280;64090;49.770;18.760;2023-11-21T14:39:42;97185.66;;;7.44;88.65
75513;BME280;64090;49.770;18.760;2023-11-21T14:42:52;97184.30;;;7.35;88.70
75513;BME280;64090;49.770;18.760;2023-11-21T14:45:57;97195.96;;;7.31;88.83
75513;BME280;64090;49.770;18.760;2023-11-21T14:49:02;97203.69;;;7.23;89.69
75513;BME280;64090;49.770;18.760;2023-11-21T14:52:22;97212.80;;;7.05;90.15
75513;BME280;64090;49.770;18.760;2023-11-21T14:55:37;97207.92;;;6.91;90.73
75513;BME280;64090;49.770;18.760;2023-11-21T14:59:00;97208.30;;;6.71;91.19
75513;BME280;64090;49.770;18.760;2023-11-21T15:02:11;97214.06;;;6.58;92.11
75513;BME280;64090;49.770;18.760;2023-11-21T15:05:24;97217.35;;;6.44;92.28
75513;BME280;64090;49.770;18.760;2023-11-21T15:08:28;97212.41;;;6.37;92.53
75513;BME280;64090;49.770;18.760;2023-11-21T15:11:35;97213.42;;;6.33;92.67
75513;BME280;64090;49.770;18.760;2023-11-21T15:14:51;97216.87;;;6.31;92.32
75513;BME280;64090;49.770;18.760;2023-11-21T15:17:59;97216.84;;;6.28;92.37
75513;BME280;64090;49.770;18.760;2023-11-21T15:21:02;97218.01;;;6.26;92.40
75513;BME280;64090;49.770;18.760;2023-11-21T15:24:08;97221.02;;;6.23;92.18
75513;BME280;64090;49.770;18.760;2023-11-21T15:27:11;97225.07;;;6.20;92.56
75513;BME280;64090;49.770;18.760;2023-11-21T15:30:14;97219.52;;;6.17;92.34
75513;BME280;64090;49.770;18.760;2023-11-21T15:33:18;97225.41;;;6.13;92.80
75513;BME280;64090;49.770;18.760;2023-11-21T15:36:21;97223.16;;;6.12;92.56
75513;BME280;64090;49.770;18.760;2023-11-21T15:39:24;97227.90;;;6.10;92.54
75513;BME280;64090;49.770;18.760;2023-11-21T15:42:31;97231.59;;;6.10;92.65
75513;BME280;64090;49.770;18.760;2023-11-21T15:45:34;97232.15;;;6.10;92.42
75513;BME280;64090;49.770;18.760;2023-11-21T15:48:37;97232.33;;;6.10;92.76
75513;BME280;64090;49.770;18.760;2023-11-21T15:51:43;97235.25;;;6.11;93.00
75513;BME280;64090;49.770;18.760;2023-11-21T15:54:55;97235.66;;;6.12;93.23
75513;BME280;64090;49.770;18.760;2023-11-21T15:57:59;97237.65;;;6.11;93.07
75513;BME280;64090;49.770;18.760;2023-11-21T16:01:03;97242.36;;;6.13;93.32
75513;BME280;64090;49.770;18.760;2023-11-21T16:04:06;97244.80;;;6.13;93.33
75513;BME280;64090;49.770;18.760;2023-11-21T16:07:09;97248.14;;;6.13;93.37
75513;BME280;64090;49.770;18.760;2023-11-21T16:10:16;97253.27;;;6.14;93.29
75513;BME280;64090;49.770;18.760;2023-11-21T16:13:19;97255.21;;;6.14;93.56
75513;BME280;64090;49.770;18.760;2023-11-21T16:16:22;97254.36;;;6.14;93.52
75513;BME280;64090;49.770;18.760;2023-11-21T16:19:25;97258.79;;;6.15;93.74
75513;BME280;64090;49.770;18.760;2023-11-21T16:22:28;97258.65;;;6.16;93.63
75513;BME280;64090;49.770;18.760;2023-11-21T16:25:33;97261.85;;;6.16;93.80
75513;BME280;64090;49.770;18.760;2023-11-21T16:28:35;97264.04;;;6.15;93.77
75513;BME280;64090;49.770;18.760;2023-11-21T16:31:40;97263.09;;;6.14;93.82